Погода Чурдафна 2 недели

Республика Дагестан, Россия

14 - 27 июля
  • 14июля
    Сегодня
    +18°
    +28°
    Ясно и безоблачно
    ВремяПогодаТемператураВлажностьДавлениеВетер, м/сВероятность осадков
    00:00Практически безоблачно+18°C82 %696 мм0.8 м/с3 %
    03:00Практически безоблачно+18°C80 %696 мм0.7 м/с9 %
    06:00Ясно и безоблачно+20°C68 %697 мм0.9 м/с8 %
    09:00Ясно и безоблачно+26°C39 %698 мм2.5 м/с9 %
    12:00Ясно и безоблачно+27°C35 %698 мм3.0 м/с9 %
    15:00Ясно и безоблачно+27°C37 %697 мм3.1 м/с6 %
    18:00Ясно и безоблачно+24°C53 %697 мм1.0 м/с4 %
    21:00Ясно и безоблачно+20°C67 %698 мм0.7 м/с3 %
  • 15июля
    Понедельник
    +19°
    +30°
    Ясно и безоблачно
    ВремяПогодаТемператураВлажностьДавлениеВетер, м/сВероятность осадков
    00:00Ясно и безоблачно+18°C63 %697 мм1.7 м/с2 %
    03:00Ясно и безоблачно+18°C45 %696 мм1.9 м/с2 %
    06:00Ясно и безоблачно+20°C47 %697 мм1.1 м/с2 %
    09:00Ясно и безоблачно+27°C35 %698 мм1.5 м/с2 %
    12:00Практически безоблачно+30°C36 %698 мм2.9 м/с2 %
    15:00Ясно и безоблачно+28°C39 %698 мм2.8 м/с1 %
    18:00Ясно и безоблачно+26°C49 %698 мм1.6 м/с2 %
    21:00Ясно и безоблачно+21°C67 %697 мм0.9 м/с2 %
  • 16июля
    Вторник
    +20°
    +31°
    Небольшая облачность
    ВремяПогодаТемператураВлажностьДавлениеВетер, м/сВероятность осадков
    00:00Ясно и безоблачно+20°C64 %697 мм1.0 м/с2 %
    03:00Ясно и безоблачно+20°C64 %697 мм1.0 м/с2 %
    06:00Ясно и безоблачно+22°C62 %697 мм0.7 м/с2 %
    09:00Ясно и безоблачно+29°C43 %699 мм2.1 м/с2 %
    12:00Практически безоблачно+31°C41 %699 мм3.0 м/с3 %
    15:00Небольшая облачность+30°C49 %699 мм3.2 м/с12 %
    18:00Практически безоблачно+27°C55 %699 мм1.4 м/с15 %
    21:00Практически безоблачно+23°C75 %698 мм0.7 м/с7 %
  • 17июля
    Среда
    +20°
    +31°
    Небольшая облачность
    ВремяПогодаТемператураВлажностьДавлениеВетер, м/сВероятность осадков
    00:00Ясно и безоблачно+22°C75 %697 мм1.2 м/с3 %
    03:00Ясно и безоблачно+21°C74 %697 мм0.9 м/с2 %
    06:00Ясно и безоблачно+23°C66 %698 мм0.9 м/с2 %
    09:00Ясно и безоблачно+30°C42 %700 мм1.8 м/с3 %
    12:00Небольшая облачность+31°C38 %700 мм2.9 м/с21 %
    15:00Небольшая облачность+30°C41 %699 мм2.5 м/с31 %
    18:00Практически безоблачно+27°C51 %699 мм1.1 м/с31 %
    21:00Облачно с прояснениями+22°C67 %699 мм0.8 м/с11 %
  • 18июля
    Четверг
    +20°
    +31°
    Практически безоблачно
    ВремяПогодаТемператураВлажностьДавлениеВетер, м/сВероятность осадков
    00:00Облачно с прояснениями+21°C65 %698 мм0.8 м/с8 %
    03:00Облачно с прояснениями+21°C63 %698 мм0.8 м/с6 %
    06:00Облачно с прояснениями+23°C64 %698 мм0.6 м/с6 %
    09:00Практически безоблачно+28°C43 %699 мм2.3 м/с15 %
    12:00Практически безоблачно+31°C36 %699 мм3.7 м/с36 %
    15:00Практически безоблачно+28°C51 %699 мм2.9 м/с50 %
    18:00Ясно и безоблачно+26°C58 %698 мм1.5 м/с25 %
    21:00Ясно и безоблачно+22°C75 %698 мм1.3 м/с3 %
Мы используем cookies
Соглашаюсь